Time;durP1;ratioP1;P1;durP2;ratioP2;P2;SDS_P1;SDS_P2;PMS_P1;PMS_P2;Temp;Humidity;BMP_temperature;BMP_pressure;BME280_temperature;BME280_humidity;BME280_pressure;Samples;Min_cycle;Max_cycle;Signal;HPM_P1;HPM_P2
2022/03/14 00:00:27;;;;;;;11.07;4.53;;;4.80;40.00;;;;;;4109172;28;20501;-77
2022/03/14 00:02:30;;;;;;;10.87;4.43;;;4.80;40.10;;;;;;4114981;28;20472;-78
2022/03/14 00:04:38;;;;;;;8.97;4.33;;;4.70;40.10;;;;;;4116814;28;20461;-77
2022/03/14 00:06:39;;;;;;;9.50;4.67;;;4.70;40.20;;;;;;4128710;28;20870;-77
2022/03/14 00:08:44;;;;;;;10.80;4.60;;;4.70;40.10;;;;;;4111810;28;20504;-77
2022/03/14 00:10:49;;;;;;;10.37;4.67;;;4.60;40.10;;;;;;4115612;28;20485;-77
2022/03/14 00:12:58;;;;;;;7.17;4.50;;;4.70;40.20;;;;;;4124578;28;20461;-77
2022/03/14 00:15:01;;;;;;;7.80;4.33;;;4.60;40.20;;;;;;4116322;28;20448;-77
2022/03/14 00:17:08;;;;;;;10.40;5.17;;;4.60;40.20;;;;;;4111558;28;20496;-77
2022/03/14 00:19:14;;;;;;;9.67;4.97;;;4.60;40.20;;;;;;4115919;28;20517;-77
2022/03/14 00:21:20;;;;;;;10.20;4.80;;;4.60;40.30;;;;;;4116428;28;20826;-77
2022/03/14 00:23:22;;;;;;;8.20;4.50;;;4.50;40.20;;;;;;4122408;28;20498;-78
2022/03/14 00:25:24;;;;;;;8.97;4.67;;;4.50;40.20;;;;;;4115030;28;20511;-78
2022/03/14 00:27:26;;;;;;;9.10;4.57;;;4.50;40.20;;;;;;4109880;28;20460;-80
2022/03/14 00:29:28;;;;;;;9.27;4.50;;;4.50;40.30;;;;;;4114648;28;20460;-78
2022/03/14 00:31:31;;;;;;;10.03;4.40;;;4.40;40.20;;;;;;4124976;28;20562;-78
2022/03/14 00:33:33;;;;;;;7.67;4.40;;;4.40;40.40;;;;;;4116235;28;20472;-81
2022/03/14 00:35:36;;;;;;;10.13;4.50;;;4.40;40.40;;;;;;4118910;28;20582;-77
2022/03/14 00:37:39;;;;;;;9.57;4.77;;;4.40;40.40;;;;;;4117259;28;20502;-77
2022/03/14 00:39:42;;;;;;;8.70;4.40;;;4.40;40.40;;;;;;4115744;28;20975;-77
2022/03/14 00:41:44;;;;;;;9.30;4.27;;;4.40;40.40;;;;;;4116702;28;20500;-78
2022/03/14 00:43:46;;;;;;;7.97;4.53;;;4.30;40.40;;;;;;4115757;28;20464;-78
2022/03/14 00:45:47;;;;;;;8.97;4.23;;;4.30;40.60;;;;;;4114463;28;20465;-79
2022/03/14 00:47:50;;;;;;;9.40;4.43;;;4.30;40.40;;;;;;4115295;28;20472;-77
2022/03/14 00:49:51;;;;;;;13.97;4.67;;;4.20;40.60;;;;;;4112602;28;20819;-77
2022/03/14 00:51:57;;;;;;;8.87;4.37;;;4.30;40.80;;;;;;4121043;28;20486;-77
2022/03/14 00:53:59;;;;;;;9.80;4.73;;;4.20;40.70;;;;;;4115586;28;20460;-77
2022/03/14 00:56:01;;;;;;;8.60;4.30;;;4.20;40.80;;;;;;4123467;28;20463;-77
2022/03/14 00:58:03;;;;;;;9.83;4.63;;;4.10;40.80;;;;;;4113111;28;20583;-77
2022/03/14 01:00:06;;;;;;;9.70;5.27;;;4.10;40.90;;;;;;4113595;28;20830;-77
2022/03/14 01:02:08;;;;;;;8.10;4.23;;;4.10;41.00;;;;;;4112458;28;20559;-77
2022/03/14 01:04:09;;;;;;;7.73;3.83;;;4.10;41.00;;;;;;4114857;28;20491;-77
2022/03/14 01:06:11;;;;;;;9.77;4.57;;;4.00;41.00;;;;;;4113299;28;20468;-78
2022/03/14 01:08:15;;;;;;;6.87;4.00;;;4.00;41.00;;;;;;4112571;28;20873;-77
2022/03/14 01:10:17;;;;;;;9.90;4.80;;;4.00;41.00;;;;;;4115427;28;20480;-78
2022/03/14 01:12:18;;;;;;;9.77;4.30;;;4.00;41.10;;;;;;4126900;28;20475;-78
2022/03/14 01:14:22;;;;;;;11.63;4.80;;;3.90;41.10;;;;;;4122916;28;20472;-76
2022/03/14 01:16:24;;;;;;;11.10;4.60;;;3.90;41.00;;;;;;4109821;28;20575;-77
2022/03/14 01:18:26;;;;;;;10.57;4.90;;;3.90;41.00;;;;;;4124305;28;20526;-79
2022/03/14 01:20:30;;;;;;;11.07;4.67;;;3.90;41.00;;;;;;4116052;28;20480;-77
2022/03/14 01:22:32;;;;;;;9.67;5.17;;;3.90;41.10;;;;;;4114366;28;20474;-77
2022/03/14 01:24:38;;;;;;;8.67;4.47;;;3.80;41.10;;;;;;4114985;28;20456;-78
2022/03/14 01:26:40;;;;;;;8.63;4.37;;;3.80;41.20;;;;;;4111349;28;20961;-77
2022/03/14 01:28:43;;;;;;;9.20;4.87;;;3.80;41.40;;;;;;4115037;28;20503;-78
2022/03/14 01:30:45;;;;;;;10.23;4.63;;;3.80;41.70;;;;;;4114536;28;20488;-77
2022/03/14 01:32:47;;;;;;;11.60;4.60;;;3.80;41.30;;;;;;4110893;28;20468;-77
2022/03/14 01:34:51;;;;;;;8.33;4.03;;;3.80;41.20;;;;;;4109559;28;20464;-78
2022/03/14 01:36:53;;;;;;;8.13;4.23;;;3.80;41.30;;;;;;4110873;28;20830;-77
2022/03/14 01:38:55;;;;;;;10.87;4.80;;;3.70;41.30;;;;;;4122732;28;20467;-78
2022/03/14 01:40:58;;;;;;;8.10;4.37;;;3.70;41.10;;;;;;4122744;28;20499;-79
2022/03/14 01:43:00;;;;;;;8.17;4.10;;;3.70;41.20;;;;;;4111913;28;20464;-77
2022/03/14 01:45:02;;;;;;;9.47;4.23;;;3.70;41.10;;;;;;4111555;28;20474;-79
2022/03/14 01:47:05;;;;;;;9.13;4.03;;;3.70;41.20;;;;;;4115381;28;20957;-78
2022/03/14 01:49:07;;;;;;;12.03;4.60;;;3.70;41.00;;;;;;4116004;28;20475;-78
2022/03/14 01:51:08;;;;;;;9.50;4.80;;;3.60;41.10;;;;;;4117480;28;20484;-77
2022/03/14 01:53:10;;;;;;;9.13;4.13;;;3.60;41.30;;;;;;4118140;28;20888;-79
2022/03/14 01:55:14;;;;;;;8.80;4.10;;;3.60;41.10;;;;;;4117279;28;20977;-78
2022/03/14 01:57:17;;;;;;;10.70;4.70;;;3.60;41.20;;;;;;4116937;28;20467;-78
2022/03/14 01:59:23;;;;;;;7.90;3.97;;;3.50;41.10;;;;;;4126675;28;20475;-77
2022/03/14 02:01:25;;;;;;;10.27;4.83;;;3.50;41.30;;;;;;4112158;28;20585;-78
2022/03/14 02:03:26;;;;;;;10.43;4.67;;;3.50;41.30;;;;;;4115458;28;20495;-77
2022/03/14 02:05:30;;;;;;;9.17;4.53;;;3.50;41.10;;;;;;4123209;28;20533;-78
2022/03/14 02:07:32;;;;;;;10.57;4.33;;;3.50;41.30;;;;;;4119547;28;20531;-77
2022/03/14 02:09:34;;;;;;;7.20;4.40;;;3.50;41.20;;;;;;4124846;28;20461;-79
2022/03/14 02:11:36;;;;;;;7.53;4.40;;;3.40;41.20;;;;;;4123788;28;20498;-78
2022/03/14 02:13:39;;;;;;;9.23;4.57;;;3.40;41.30;;;;;;4103346;28;20540;-77
2022/03/14 02:15:41;;;;;;;8.60;4.03;;;3.40;41.30;;;;;;4127321;28;20476;-78
2022/03/14 02:17:43;;;;;;;9.30;4.63;;;3.40;42.10;;;;;;4121947;28;20491;-77
2022/03/14 02:19:45;;;;;;;11.40;4.93;;;3.30;41.40;;;;;;4116939;28;20461;-78
2022/03/14 02:21:48;;;;;;;11.27;4.80;;;3.40;41.20;;;;;;4108764;28;20558;-79
2022/03/14 02:23:50;;;;;;;10.50;4.70;;;3.40;41.40;;;;;;4101939;28;20445;-77
2022/03/14 02:25:53;;;;;;;10.07;5.23;;;3.30;42.20;;;;;;4113992;28;20469;-77
2022/03/14 02:27:55;;;;;;;10.27;5.57;;;3.30;41.60;;;;;;4123797;28;20452;-79
2022/03/14 02:29:57;;;;;;;17.60;6.73;;;3.30;41.80;;;;;;4122810;28;20476;-80
2022/03/14 02:31:59;;;;;;;14.23;6.90;;;3.30;41.80;;;;;;4118751;28;20467;-80
2022/03/14 02:34:01;;;;;;;18.33;8.00;;;3.20;41.70;;;;;;4117558;28;20499;-79
2022/03/14 02:36:03;;;;;;;25.83;8.60;;;3.20;41.70;;;;;;4116667;28;20523;-78
2022/03/14 02:38:14;;;;;;;23.33;9.47;;;3.20;41.70;;;;;;4116346;28;20576;-79
2022/03/14 02:40:16;;;;;;;25.80;9.93;;;3.20;41.60;;;;;;4107998;28;20587;-77
2022/03/14 02:42:17;;;;;;;23.80;10.13;;;3.20;41.50;;;;;;4116902;28;20472;-78
2022/03/14 02:44:19;;;;;;;21.80;9.37;;;3.20;41.70;;;;;;4116620;28;21016;-78
2022/03/14 02:46:21;;;;;;;29.37;9.83;;;3.10;41.80;;;;;;4115975;28;20464;-79
2022/03/14 02:48:25;;;;;;;27.10;10.20;;;3.10;41.80;;;;;;4118326;28;20460;-77
2022/03/14 02:50:29;;;;;;;23.80;9.27;;;3.10;41.70;;;;;;4128694;28;21019;-80
2022/03/14 02:52:31;;;;;;;21.97;9.17;;;3.10;41.80;;;;;;4111667;28;20999;-78
2022/03/14 02:54:34;;;;;;;21.40;8.70;;;3.10;42.10;;;;;;4115090;28;20472;-78
2022/03/14 02:56:38;;;;;;;19.83;8.47;;;3.10;42.10;;;;;;4114142;28;20464;-78
2022/03/14 02:58:40;;;;;;;24.10;8.73;;;3.10;42.20;;;;;;4115917;28;20492;-78
2022/03/14 03:00:45;;;;;;;19.70;8.13;;;3.10;42.20;;;;;;4115803;28;20488;-80
2022/03/14 03:02:47;;;;;;;19.33;8.27;;;3.10;42.30;;;;;;4115573;28;20467;-78
2022/03/14 03:04:50;;;;;;;16.40;7.70;;;3.00;42.30;;;;;;4123579;28;20945;-78
2022/03/14 03:06:54;;;;;;;18.27;7.67;;;3.00;42.30;;;;;;4132596;28;20464;-79
2022/03/14 03:08:56;;;;;;;16.13;6.40;;;3.00;42.30;;;;;;4132968;28;20952;-78
2022/03/14 03:10:59;;;;;;;15.70;6.80;;;3.00;42.20;;;;;;4110386;28;20497;-80
2022/03/14 03:13:01;;;;;;;20.80;6.57;;;3.20;42.50;;;;;;4128149;28;20973;-77
2022/03/14 03:15:03;;;;;;;16.63;6.93;;;2.90;42.50;;;;;;4113412;28;20463;-77
2022/03/14 03:17:06;;;;;;;14.70;6.57;;;2.90;42.50;;;;;;4120827;28;20465;-77
2022/03/14 03:19:10;;;;;;;15.07;6.37;;;2.90;42.60;;;;;;4121470;28;20500;-79
2022/03/14 03:21:12;;;;;;;15.33;6.03;;;2.90;42.70;;;;;;4131956;28;20475;-80
2022/03/14 03:23:14;;;;;;;14.50;6.00;;;2.90;42.70;;;;;;4124250;28;20473;-81
2022/03/14 03:25:16;;;;;;;14.23;6.40;;;2.80;42.60;;;;;;4118992;28;20473;-80
2022/03/14 03:27:21;;;;;;;12.43;5.93;;;2.80;42.70;;;;;;4120982;28;20483;-79
2022/03/14 03:29:25;;;;;;;15.43;5.90;;;2.80;42.70;;;;;;4130195;28;20839;-80
2022/03/14 03:31:28;;;;;;;11.50;5.30;;;2.80;42.90;;;;;;4130264;28;20475;-80
2022/03/14 03:33:33;;;;;;;11.83;5.63;;;2.80;43.00;;;;;;4131915;28;20464;-81
2022/03/14 03:35:35;;;;;;;14.00;5.60;;;2.80;43.10;;;;;;4117058;28;20474;-81
2022/03/14 03:37:37;;;;;;;10.53;4.73;;;2.80;43.20;;;;;;4114005;28;20463;-80
2022/03/14 03:39:39;;;;;;;9.93;4.80;;;2.70;43.20;;;;;;4119813;28;20463;-81
2022/03/14 03:41:41;;;;;;;11.47;5.57;;;2.70;43.20;;;;;;4115769;28;20508;-80
2022/03/14 03:43:44;;;;;;;10.33;4.93;;;2.70;43.20;;;;;;4120336;28;20482;-80
2022/03/14 03:45:46;;;;;;;9.43;5.40;;;2.70;43.40;;;;;;4120883;28;20452;-81
2022/03/14 03:47:48;;;;;;;9.97;5.00;;;2.70;43.50;;;;;;4117412;28;20485;-80
2022/03/14 03:49:50;;;;;;;9.97;4.93;;;2.70;44.10;;;;;;4123112;28;20507;-81
2022/03/14 03:51:52;;;;;;;8.90;4.53;;;2.60;43.30;;;;;;4129667;28;20511;-79
2022/03/14 03:53:54;;;;;;;7.80;4.27;;;2.60;43.20;;;;;;4117508;28;20460;-78
2022/03/14 03:55:55;;;;;;;9.20;4.37;;;2.60;43.30;;;;;;4120365;28;20453;-82
2022/03/14 03:57:59;;;;;;;8.67;4.70;;;2.60;43.30;;;;;;4118563;28;20456;-79
2022/03/14 04:00:02;;;;;;;9.17;4.80;;;2.60;43.40;;;;;;4115908;28;20471;-80
2022/03/14 04:02:05;;;;;;;10.80;4.70;;;2.60;43.30;;;;;;4120324;28;20492;-81
2022/03/14 04:04:09;;;;;;;9.63;4.33;;;2.60;43.50;;;;;;4127562;28;20981;-80
2022/03/14 04:06:10;;;;;;;12.97;4.60;;;2.50;43.50;;;;;;4131888;28;20459;-81
2022/03/14 04:08:13;;;;;;;9.97;5.30;;;2.50;43.50;;;;;;4121962;28;20985;-79
2022/03/14 04:10:15;;;;;;;9.70;4.70;;;2.50;43.50;;;;;;4119718;28;20504;-80
2022/03/14 04:12:17;;;;;;;8.87;4.43;;;2.50;43.70;;;;;;4119486;28;20529;-81
2022/03/14 04:14:19;;;;;;;10.20;5.00;;;2.40;43.90;;;;;;4120328;28;20557;-80
2022/03/14 04:16:26;;;;;;;8.87;4.70;;;2.50;44.20;;;;;;4110563;28;20535;-80
2022/03/14 04:18:27;;;;;;;11.10;4.73;;;3.50;44.70;;;;;;4120090;28;20486;-81
2022/03/14 04:20:29;;;;;;;11.07;4.30;;;2.40;44.20;;;;;;4121430;28;20547;-80
2022/03/14 04:22:32;;;;;;;12.33;4.80;;;2.40;44.20;;;;;;4115191;28;20974;-80
2022/03/14 04:24:36;;;;;;;9.63;4.47;;;2.30;44.30;;;;;;4122441;28;20619;-81
2022/03/14 04:26:46;;;;;;;9.77;4.60;;;2.90;44.60;;;;;;4113248;28;20465;-79
2022/03/14 04:28:48;;;;;;;10.73;4.63;;;2.30;44.10;;;;;;4119808;28;20803;-80
2022/03/14 04:30:50;;;;;;;8.27;4.23;;;2.30;44.10;;;;;;4120042;28;20536;-79
2022/03/14 04:32:53;;;;;;;8.80;4.33;;;2.30;44.30;;;;;;4119706;28;20491;-80
2022/03/14 04:34:55;;;;;;;8.20;4.10;;;2.30;44.10;;;;;;4135443;28;20461;-81
2022/03/14 04:36:58;;;;;;;9.90;4.20;;;2.30;43.80;;;;;;4128018;28;20536;-79
2022/03/14 04:38:59;;;;;;;10.23;4.50;;;2.30;43.90;;;;;;4132919;28;20562;-80
2022/03/14 04:41:01;;;;;;;7.53;4.30;;;2.20;44.00;;;;;;4118596;28;20501;-80
2022/03/14 04:43:05;;;;;;;8.40;4.03;;;2.30;44.10;;;;;;4103487;28;20539;-80
2022/03/14 04:45:07;;;;;;;10.17;4.70;;;2.20;44.00;;;;;;4111203;28;20475;-81
2022/03/14 04:47:10;;;;;;;10.57;4.90;;;2.20;44.10;;;;;;4123880;28;20470;-81
2022/03/14 04:49:13;;;;;;;8.50;4.47;;;2.30;44.30;;;;;;4129156;28;20519;-80
2022/03/14 04:51:15;;;;;;;10.27;4.77;;;2.20;44.30;;;;;;4116090;28;20503;-80
2022/03/14 04:53:18;;;;;;;10.17;4.73;;;2.20;44.30;;;;;;4111981;28;20532;-79
2022/03/14 04:55:19;;;;;;;8.97;4.33;;;2.60;44.60;;;;;;4127093;28;20687;-80
2022/03/14 04:57:21;;;;;;;7.77;4.47;;;2.10;44.50;;;;;;4119398;28;20549;-79
2022/03/14 04:59:26;;;;;;;9.13;4.23;;;2.10;44.70;;;;;;4120710;28;20872;-79
2022/03/14 05:01:28;;;;;;;8.63;4.77;;;2.10;45.00;;;;;;4114037;28;20497;-80
2022/03/14 05:03:29;;;;;;;10.00;4.77;;;2.10;45.10;;;;;;4120690;28;20467;-80
2022/03/14 05:05:33;;;;;;;8.83;4.20;;;2.10;45.20;;;;;;4121592;28;20875;-79
2022/03/14 05:07:35;;;;;;;8.53;4.60;;;2.00;45.30;;;;;;4124136;28;20471;-79
2022/03/14 05:09:37;;;;;;;9.87;4.17;;;2.00;45.40;;;;;;4118228;28;20462;-81
2022/03/14 05:11:40;;;;;;;8.77;4.37;;;2.00;45.30;;;;;;4126837;28;20472;-81
2022/03/14 05:13:42;;;;;;;8.73;4.63;;;2.00;45.30;;;;;;4130432;28;20935;-80
2022/03/14 05:15:44;;;;;;;8.00;4.07;;;2.00;45.30;;;;;;4119919;28;20537;-79
2022/03/14 05:17:46;;;;;;;12.43;5.17;;;2.00;45.30;;;;;;4106166;28;20476;-80
2022/03/14 05:19:48;;;;;;;11.13;4.77;;;2.00;45.50;;;;;;4112789;28;20964;-80
2022/03/14 05:21:51;;;;;;;7.50;4.60;;;2.00;45.50;;;;;;4119189;28;20479;-80
2022/03/14 05:23:56;;;;;;;10.03;4.50;;;1.90;45.50;;;;;;4117297;28;20872;-80
2022/03/14 05:25:59;;;;;;;9.83;4.93;;;2.00;45.20;;;;;;4117501;28;20460;-79
2022/03/14 05:28:01;;;;;;;11.43;4.80;;;1.90;45.20;;;;;;4116337;28;20464;-81
2022/03/14 05:30:03;;;;;;;12.70;4.93;;;2.00;45.30;;;;;;4119511;28;20460;-80
2022/03/14 05:32:06;;;;;;;10.10;4.47;;;1.90;45.20;;;;;;4119100;28;20883;-81
2022/03/14 05:34:08;;;;;;;9.70;4.97;;;1.90;45.30;;;;;;4118781;28;20543;-80
2022/03/14 05:36:09;;;;;;;11.40;4.93;;;1.90;45.30;;;;;;4115475;28;20470;-81
2022/03/14 05:38:12;;;;;;;8.37;4.47;;;1.90;45.40;;;;;;4118932;28;20807;-80
2022/03/14 05:40:15;;;;;;;12.80;5.47;;;1.90;45.50;;;;;;4124103;28;20527;-79
2022/03/14 05:42:17;;;;;;;9.13;4.90;;;1.90;45.60;;;;;;4105551;28;20511;-81
2022/03/14 05:44:19;;;;;;;8.50;4.40;;;1.90;45.80;;;;;;4112200;28;20455;-80
2022/03/14 05:46:21;;;;;;;12.23;4.80;;;1.90;45.80;;;;;;4119962;28;20470;-79
2022/03/14 05:48:23;;;;;;;9.63;4.50;;;1.90;45.80;;;;;;4117009;28;20486;-81
2022/03/14 05:50:25;;;;;;;8.57;4.53;;;1.90;45.80;;;;;;4114979;28;20508;-80
2022/03/14 05:52:26;;;;;;;9.40;4.67;;;1.90;46.00;;;;;;4118200;28;20466;-80
2022/03/14 05:54:30;;;;;;;8.40;4.43;;;1.90;46.00;;;;;;4118255;28;20471;-80
2022/03/14 05:56:32;;;;;;;10.40;4.83;;;1.90;46.00;;;;;;4123198;28;20535;-81
2022/03/14 05:58:34;;;;;;;10.77;4.07;;;2.10;46.20;;;;;;4118757;28;20460;-80
2022/03/14 06:00:36;;;;;;;10.93;4.90;;;2.20;46.30;;;;;;4118047;28;20479;-80
2022/03/14 06:02:38;;;;;;;8.83;4.63;;;1.90;46.10;;;;;;4119518;28;20463;-81
2022/03/14 06:04:40;;;;;;;11.43;5.27;;;1.90;46.10;;;;;;4116992;28;20499;-80
2022/03/14 06:06:42;;;;;;;10.77;5.00;;;1.90;46.00;;;;;;4117617;28;20467;-80
2022/03/14 06:08:44;;;;;;;12.70;5.90;;;1.90;46.10;;;;;;4115434;28;20892;-79
2022/03/14 06:10:47;;;;;;;13.93;6.20;;;1.90;46.00;;;;;;4116834;28;20490;-79
2022/03/14 06:12:49;;;;;;;12.03;5.97;;;2.00;46.20;;;;;;4118762;28;20959;-80
2022/03/14 06:14:53;;;;;;;11.60;5.40;;;2.40;46.50;;;;;;4119361;28;20467;-79
2022/03/14 06:16:55;;;;;;;10.47;5.03;;;1.90;46.30;;;;;;4115419;28;20486;-79
2022/03/14 06:18:57;;;;;;;11.47;5.57;;;1.90;46.30;;;;;;4117832;28;21000;-81
2022/03/14 06:20:59;;;;;;;10.93;5.13;;;1.90;46.30;;;;;;4116254;28;20501;-80
2022/03/14 06:23:01;;;;;;;10.97;4.90;;;1.90;46.50;;;;;;4117437;28;20471;-80
2022/03/14 06:25:03;;;;;;;9.47;4.57;;;2.00;46.50;;;;;;4120046;28;20463;-80
2022/03/14 06:27:06;;;;;;;9.07;4.77;;;2.00;46.60;;;;;;4117681;28;20486;-80
2022/03/14 06:29:08;;;;;;;8.93;5.03;;;2.00;46.60;;;;;;4116973;28;21001;-79
2022/03/14 06:31:11;;;;;;;10.40;4.70;;;2.00;46.60;;;;;;4119496;28;20875;-80
2022/03/14 06:33:12;;;;;;;12.20;5.43;;;2.00;46.60;;;;;;4121205;28;20476;-79
2022/03/14 06:35:16;;;;;;;10.17;5.40;;;2.00;46.50;;;;;;4121601;28;20471;-79
2022/03/14 06:37:18;;;;;;;12.30;5.47;;;2.00;46.50;;;;;;4120914;28;20551;-79
2022/03/14 06:39:20;;;;;;;17.03;6.53;;;2.00;46.40;;;;;;4122289;28;20502;-79
2022/03/14 06:41:22;;;;;;;10.63;5.17;;;2.10;46.30;;;;;;4123697;28;20494;-80
2022/03/14 06:43:26;;;;;;;10.73;5.43;;;2.10;46.30;;;;;;4125795;28;20531;-80
2022/03/14 06:45:29;;;;;;;12.00;5.30;;;2.20;46.40;;;;;;4123372;28;20471;-81
2022/03/14 06:47:32;;;;;;;11.10;5.40;;;2.10;46.40;;;;;;4117184;28;20554;-81
2022/03/14 06:49:34;;;;;;;13.20;5.63;;;2.10;46.40;;;;;;4118855;28;20895;-85
2022/03/14 06:51:37;;;;;;;15.93;6.33;;;2.20;46.30;;;;;;4117124;28;21017;-81
2022/03/14 06:53:38;;;;;;;11.73;5.53;;;2.20;46.10;;;;;;4113913;28;20482;-78
2022/03/14 06:55:40;;;;;;;10.47;5.40;;;2.20;46.00;;;;;;4116686;28;20456;-78
2022/03/14 06:57:42;;;;;;;14.10;5.90;;;2.30;46.00;;;;;;4120253;28;20693;-79
2022/03/14 06:59:45;;;;;;;10.67;5.40;;;2.80;46.30;;;;;;4121822;28;20491;-80
2022/03/14 07:01:47;;;;;;;12.17;5.87;;;2.30;45.90;;;;;;4121284;28;20492;-80
2022/03/14 07:03:49;;;;;;;18.40;6.60;;;2.40;46.00;;;;;;4118986;28;20480;-80
2022/03/14 07:05:51;;;;;;;12.90;5.50;;;2.40;45.80;;;;;;4122735;28;20850;-78
2022/03/14 07:07:53;;;;;;;14.37;5.87;;;2.40;45.80;;;;;;4120403;28;20454;-81
2022/03/14 07:09:57;;;;;;;13.27;6.10;;;2.50;45.70;;;;;;4119387;28;20456;-78
2022/03/14 07:11:59;;;;;;;12.67;6.03;;;2.50;45.70;;;;;;4113247;28;20484;-78
2022/03/14 07:14:01;;;;;;;13.67;6.40;;;2.50;45.80;;;;;;4118889;28;20452;-79
2022/03/14 07:16:04;;;;;;;13.93;6.50;;;2.60;45.80;;;;;;4123297;28;20472;-80
2022/03/14 07:18:06;;;;;;;15.07;6.70;;;2.70;45.50;;;;;;4119864;28;20498;-81
2022/03/14 07:20:10;;;;;;;12.57;6.00;;;2.70;45.50;;;;;;4122921;28;20543;-80
2022/03/14 07:22:17;;;;;;;12.23;6.07;;;2.70;45.60;;;;;;4115951;28;20452;-80
2022/03/14 07:24:19;;;;;;;15.13;6.37;;;2.70;45.70;;;;;;4116607;28;20468;-79
2022/03/14 07:26:21;;;;;;;10.90;5.40;;;2.70;45.70;;;;;;4118899;28;20828;-80
2022/03/14 07:28:22;;;;;;;10.77;5.40;;;2.80;45.80;;;;;;4116760;28;20479;-79
2022/03/14 07:30:25;;;;;;;12.73;6.10;;;2.80;45.80;;;;;;4119412;28;20564;-78
2022/03/14 07:32:28;;;;;;;13.03;6.27;;;2.90;45.80;;;;;;4119332;28;20468;-77
2022/03/14 07:34:31;;;;;;;15.53;6.73;;;2.90;45.70;;;;;;4119921;28;21009;-79
2022/03/14 07:36:34;;;;;;;15.23;6.40;;;3.20;45.80;;;;;;4116889;28;20472;-78
2022/03/14 07:38:36;;;;;;;15.43;6.40;;;3.00;45.40;;;;;;4103926;29;20896;-79
2022/03/14 07:40:38;;;;;;;14.60;6.80;;;3.20;45.00;;;;;;4117503;28;20494;-78
2022/03/14 07:42:41;;;;;;;13.00;6.50;;;3.20;44.90;;;;;;4117291;28;20471;-78
2022/03/14 07:44:43;;;;;;;13.40;6.77;;;3.30;45.20;;;;;;4120470;28;20468;-79
2022/03/14 07:46:45;;;;;;;10.73;5.97;;;3.30;45.20;;;;;;4120438;28;20539;-80
2022/03/14 07:48:48;;;;;;;14.03;6.90;;;3.40;44.90;;;;;;4121613;28;20468;-78
2022/03/14 07:50:52;;;;;;;15.03;6.20;;;3.50;44.70;;;;;;4128290;28;20473;-78
2022/03/14 07:52:57;;;;;;;12.30;6.40;;;3.70;44.20;;;;;;4119258;28;20827;-79
2022/03/14 07:54:59;;;;;;;11.70;6.13;;;3.80;44.10;;;;;;4128657;28;20510;-78
2022/03/14 07:57:00;;;;;;;14.20;6.30;;;3.80;44.20;;;;;;4115715;28;20474;-79
2022/03/14 07:59:03;;;;;;;14.70;7.00;;;3.90;43.80;;;;;;4112482;28;20962;-78
2022/03/14 08:01:05;;;;;;;12.40;6.17;;;4.00;43.50;;;;;;4121479;28;20497;-79
2022/03/14 08:03:07;;;;;;;12.07;6.00;;;4.10;43.20;;;;;;4125468;28;20467;-79
2022/03/14 08:05:13;;;;;;;16.93;6.97;;;4.30;42.90;;;;;;4130482;28;20488;-79
2022/03/14 08:07:15;;;;;;;11.07;6.00;;;4.40;42.50;;;;;;4105231;28;20951;-79
2022/03/14 08:09:18;;;;;;;17.30;6.10;;;4.60;42.30;;;;;;4103984;28;20888;-79
2022/03/14 08:11:23;;;;;;;14.13;6.90;;;4.80;41.90;;;;;;4104704;28;20899;-79
2022/03/14 08:13:26;;;;;;;12.10;6.10;;;5.00;41.50;;;;;;4117834;28;20499;-79
2022/03/14 08:15:30;;;;;;;17.87;6.90;;;5.20;41.20;;;;;;4113844;28;20506;-79
2022/03/14 08:17:35;;;;;;;22.53;7.47;;;5.30;40.80;;;;;;4118461;28;20935;-79
2022/03/14 08:19:37;;;;;;;13.10;6.53;;;5.40;40.30;;;;;;4107100;28;20462;-79
2022/03/14 08:21:42;;;;;;;12.13;6.20;;;5.50;40.30;;;;;;4118549;28;20479;-79
2022/03/14 08:23:45;;;;;;;15.60;6.40;;;5.60;39.60;;;;;;4118695;28;20461;-79
2022/03/14 08:25:47;;;;;;;17.07;6.50;;;5.70;39.30;;;;;;4117696;28;20481;-79
2022/03/14 08:27:49;;;;;;;14.23;6.30;;;5.90;38.60;;;;;;4117192;28;20468;-78
2022/03/14 08:29:54;;;;;;;12.10;6.30;;;6.00;38.70;;;;;;4118439;28;20521;-79
2022/03/14 08:31:58;;;;;;;12.13;6.07;;;6.10;38.50;;;;;;4119701;28;20474;-78
2022/03/14 08:34:00;;;;;;;13.73;5.80;;;6.20;38.70;;;;;;4129699;28;20550;-79
2022/03/14 08:36:04;;;;;;;15.17;6.33;;;6.30;38.50;;;;;;4119627;28;20472;-79
2022/03/14 08:38:08;;;;;;;19.10;6.80;;;6.40;38.30;;;;;;4116460;28;20472;-78
2022/03/14 08:40:13;;;;;;;12.60;6.33;;;6.50;38.10;;;;;;4121901;28;20853;-79
2022/03/14 08:42:15;;;;;;;13.30;5.87;;;6.60;37.60;;;;;;4114742;28;20478;-79
2022/03/14 08:44:18;;;;;;;13.57;5.87;;;6.70;37.60;;;;;;4123215;28;20470;-78
2022/03/14 08:46:20;;;;;;;13.10;6.53;;;6.70;37.50;;;;;;4125134;28;20463;-79
2022/03/14 08:48:22;;;;;;;12.20;6.50;;;6.80;37.40;;;;;;4124472;28;20987;-79
2022/03/14 08:50:24;;;;;;;14.83;6.43;;;6.80;37.20;;;;;;4115397;28;20589;-79
2022/03/14 08:52:26;;;;;;;13.63;6.10;;;6.90;37.00;;;;;;4120029;28;20477;-80
2022/03/14 08:54:29;;;;;;;15.93;6.30;;;7.10;37.00;;;;;;4119749;28;20510;-79
2022/03/14 08:56:30;;;;;;;11.80;6.50;;;7.00;36.80;;;;;;4120722;28;20456;-79
2022/03/14 08:58:33;;;;;;;14.03;6.00;;;7.00;36.90;;;;;;4121294;28;20514;-79
2022/03/14 09:00:36;;;;;;;11.30;6.40;;;7.10;36.70;;;;;;4120511;28;20522;-79
2022/03/14 09:02:38;;;;;;;12.97;6.93;;;7.10;36.70;;;;;;4117007;28;20452;-78
2022/03/14 09:04:40;;;;;;;14.07;6.73;;;7.30;36.70;;;;;;4121363;28;20519;-79
2022/03/14 09:06:42;;;;;;;15.97;7.53;;;7.20;36.50;;;;;;4122073;28;20476;-78
2022/03/14 09:08:43;;;;;;;13.00;6.50;;;7.30;36.50;;;;;;4122403;28;20463;-80
2022/03/14 09:10:47;;;;;;;12.33;6.57;;;7.30;36.70;;;;;;4121664;28;20460;-80
2022/03/14 09:12:49;;;;;;;15.73;7.10;;;7.60;36.50;;;;;;4121351;28;20456;-79
2022/03/14 09:14:53;;;;;;;14.87;6.63;;;7.50;36.30;;;;;;4125161;28;20849;-80
2022/03/14 09:16:55;;;;;;;13.13;6.93;;;7.50;36.40;;;;;;4125815;28;20471;-80
2022/03/14 09:18:58;;;;;;;12.10;6.43;;;7.60;36.40;;;;;;4117268;28;20464;-80
2022/03/14 09:21:00;;;;;;;16.97;7.30;;;7.70;36.50;;;;;;4167765;23;20490;-82
2022/03/14 09:23:02;;;;;;;12.33;6.87;;;7.90;36.60;;;;;;4154617;28;20509;-81
2022/03/14 09:25:07;;;;;;;18.80;7.27;;;7.80;36.20;;;;;;4151688;28;20474;-82
2022/03/14 09:27:11;;;;;;;13.43;6.83;;;7.90;35.90;;;;;;4152810;28;20450;-81
2022/03/14 09:29:15;;;;;;;13.87;7.27;;;8.20;36.20;;;;;;4159570;28;20533;-82
2022/03/14 09:31:21;;;;;;;11.97;7.23;;;8.00;36.60;;;;;;4149178;28;20483;-82
2022/03/14 09:33:23;;;;;;;11.57;6.17;;;8.10;36.40;;;;;;4135032;28;20212;-80
2022/03/14 09:35:25;;;;;;;14.83;6.70;;;8.10;35.90;;;;;;4126521;28;20495;-80
2022/03/14 09:37:27;;;;;;;12.10;6.37;;;8.20;35.80;;;;;;4135365;28;20243;-80
2022/03/14 09:39:29;;;;;;;15.00;7.10;;;8.30;36.00;;;;;;4137109;28;21020;-81
2022/03/14 09:41:34;;;;;;;14.83;6.50;;;8.40;36.00;;;;;;4139030;28;20534;-80
2022/03/14 09:43:40;;;;;;;14.00;6.77;;;8.30;36.00;;;;;;4138863;28;20650;-81
2022/03/14 09:45:48;;;;;;;13.73;6.40;;;8.40;36.10;;;;;;4138362;28;20204;-80
2022/03/14 09:47:51;;;;;;;13.07;7.27;;;8.50;36.40;;;;;;4135115;28;20242;-80
2022/03/14 09:49:55;;;;;;;11.53;6.40;;;8.50;36.30;;;;;;4136291;28;20212;-80
2022/03/14 09:51:57;;;;;;;13.00;7.07;;;8.60;36.30;;;;;;4131115;28;20818;-80
2022/03/14 09:53:59;;;;;;;14.40;7.73;;;8.70;35.80;;;;;;4120099;28;21013;-80
2022/03/14 09:56:05;;;;;;;13.50;7.20;;;8.70;36.00;;;;;;4130502;28;20267;-80
2022/03/14 09:58:08;;;;;;;12.40;6.70;;;8.80;36.20;;;;;;4135169;28;20201;-80
2022/03/14 10:00:13;;;;;;;13.47;6.83;;;8.80;36.20;;;;;;4133353;28;20608;-80
2022/03/14 10:02:15;;;;;;;15.07;7.57;;;8.90;36.00;;;;;;4129957;28;20220;-80
2022/03/14 10:04:18;;;;;;;13.37;7.03;;;9.00;35.90;;;;;;4136351;28;20260;-80
2022/03/14 10:06:19;;;;;;;10.97;6.87;;;9.10;35.80;;;;;;4137489;28;20200;-83
2022/03/14 10:08:22;;;;;;;12.97;6.60;;;9.10;36.00;;;;;;4142423;28;20208;-83
2022/03/14 10:10:26;;;;;;;14.10;7.47;;;9.10;36.20;;;;;;4137930;28;20701;-80
2022/03/14 10:12:28;;;;;;;14.57;7.23;;;9.20;36.00;;;;;;4141062;28;20228;-83
2022/03/14 10:14:31;;;;;;;11.60;7.07;;;9.30;35.70;;;;;;4141279;28;20212;-83
2022/03/14 10:16:43;;;;;;;17.37;7.67;;;9.30;35.70;;;;;;4143502;28;20232;-83
2022/03/14 10:18:56;;;;;;;13.77;7.77;;;9.40;35.70;;;;;;4141778;28;20665;-80
2022/03/14 10:21:02;;;;;;;18.40;7.63;;;9.40;35.40;;;;;;4140878;28;20652;-82
2022/03/14 10:23:05;;;;;;;14.97;7.77;;;9.50;35.40;;;;;;4144425;28;20244;-83
2022/03/14 10:25:09;;;;;;;12.77;7.67;;;9.60;35.70;;;;;;4151458;28;20213;-82
2022/03/14 10:27:12;;;;;;;12.80;7.40;;;9.60;35.60;;;;;;4142916;28;20209;-80
2022/03/14 10:29:15;;;;;;;14.03;7.43;;;9.70;35.70;;;;;;4138476;28;20230;-80
2022/03/14 10:31:29;;;;;;;14.23;7.40;;;9.80;35.70;;;;;;4141859;28;20232;-80
2022/03/14 10:33:33;;;;;;;13.03;7.80;;;9.80;35.20;;;;;;4141694;28;20205;-80
2022/03/14 10:35:36;;;;;;;15.07;7.60;;;9.90;35.30;;;;;;4131517;28;20314;-80
2022/03/14 10:37:38;;;;;;;13.40;7.43;;;10.00;35.40;;;;;;4139783;28;20220;-83
2022/03/14 10:39:40;;;;;;;24.47;7.60;;;10.00;35.60;;;;;;4148524;28;20277;-80
2022/03/14 10:41:45;;;;;;;13.67;7.80;;;10.10;35.70;;;;;;4147445;28;20773;-82